sensor_id;sensor_type;location;lat;lon;timestamp;pressure;altitude;pressure_sealevel;temperature;humidity
73842;BME280;62184;52.006;5.924;2022-08-19T00:01:35;100610.34;;;18.42;70.41
73842;BME280;62184;52.006;5.924;2022-08-19T00:04:06;100615.00;;;18.40;70.44
73842;BME280;62184;52.006;5.924;2022-08-19T00:06:34;100603.38;;;18.38;70.83
73842;BME280;62184;52.006;5.924;2022-08-19T00:09:04;100599.81;;;18.38;70.67
73842;BME280;62184;52.006;5.924;2022-08-19T00:11:31;100608.09;;;18.34;70.81
73842;BME280;62184;52.006;5.924;2022-08-19T00:13:58;100612.75;;;18.32;70.54
73842;BME280;62184;52.006;5.924;2022-08-19T00:16:27;100610.22;;;18.29;70.54
73842;BME280;62184;52.006;5.924;2022-08-19T00:18:54;100609.53;;;18.26;70.59
73842;BME280;62184;52.006;5.924;2022-08-19T00:21:21;100609.72;;;18.23;70.85
73842;BME280;62184;52.006;5.924;2022-08-19T00:23:47;100608.06;;;18.20;70.72
73842;BME280;62184;52.006;5.924;2022-08-19T00:26:14;100606.41;;;18.18;71.01
73842;BME280;62184;52.006;5.924;2022-08-19T00:28:40;100609.22;;;18.16;70.41
73842;BME280;62184;52.006;5.924;2022-08-19T00:31:08;100604.88;;;18.14;70.72
73842;BME280;62184;52.006;5.924;2022-08-19T00:33:38;100597.13;;;18.08;71.30
73842;BME280;62184;52.006;5.924;2022-08-19T00:36:06;100598.97;;;18.07;70.88
73842;BME280;62184;52.006;5.924;2022-08-19T00:38:34;100590.25;;;18.02;71.04
73842;BME280;62184;52.006;5.924;2022-08-19T00:41:02;100598.44;;;18.01;71.33
73842;BME280;62184;52.006;5.924;2022-08-19T00:43:28;100595.16;;;17.95;71.23
73842;BME280;62184;52.006;5.924;2022-08-19T00:45:55;100601.59;;;17.93;71.27
73842;BME280;62184;52.006;5.924;2022-08-19T00:48:21;100604.50;;;17.90;71.31
73842;BME280;62184;52.006;5.924;2022-08-19T00:50:52;100605.47;;;17.89;71.18
73842;BME280;62184;52.006;5.924;2022-08-19T00:53:22;100602.84;;;17.87;71.00
73842;BME280;62184;52.006;5.924;2022-08-19T00:55:54;100605.72;;;17.84;71.27
73842;BME280;62184;52.006;5.924;2022-08-19T00:58:27;100605.91;;;17.81;71.07
73842;BME280;62184;52.006;5.924;2022-08-19T01:00:56;100612.28;;;17.80;71.28
73842;BME280;62184;52.006;5.924;2022-08-19T01:03:23;100611.47;;;17.78;71.07
73842;BME280;62184;52.006;5.924;2022-08-19T01:05:54;100605.28;;;17.76;70.94
73842;BME280;62184;52.006;5.924;2022-08-19T01:08:22;100607.22;;;17.74;70.82
73842;BME280;62184;52.006;5.924;2022-08-19T01:10:51;100602.00;;;17.71;71.05
73842;BME280;62184;52.006;5.924;2022-08-19T01:13:22;100605.72;;;17.69;71.05
73842;BME280;62184;52.006;5.924;2022-08-19T01:15:54;100605.94;;;17.66;71.09
73842;BME280;62184;52.006;5.924;2022-08-19T01:18:24;100600.69;;;17.63;71.21
73842;BME280;62184;52.006;5.924;2022-08-19T01:20:58;100608.88;;;17.61;71.49
73842;BME280;62184;52.006;5.924;2022-08-19T01:23:33;100616.31;;;17.58;71.44
73842;BME280;62184;52.006;5.924;2022-08-19T01:26:00;100611.91;;;17.55;71.31
73842;BME280;62184;52.006;5.924;2022-08-19T01:28:27;100605.72;;;17.53;71.55
73842;BME280;62184;52.006;5.924;2022-08-19T01:30:54;100611.03;;;17.54;71.47
73842;BME280;62184;52.006;5.924;2022-08-19T01:33:21;100612.75;;;17.57;71.88
73842;BME280;62184;52.006;5.924;2022-08-19T01:35:48;100612.63;;;17.58;71.84
73842;BME280;62184;52.006;5.924;2022-08-19T01:38:21;100617.84;;;17.62;71.71
73842;BME280;62184;52.006;5.924;2022-08-19T01:40:51;100615.00;;;17.65;71.83
73842;BME280;62184;52.006;5.924;2022-08-19T01:43:18;100608.28;;;17.72;72.02
73842;BME280;62184;52.006;5.924;2022-08-19T01:45:45;100610.69;;;17.76;72.03
73842;BME280;62184;52.006;5.924;2022-08-19T01:48:13;100608.53;;;17.83;71.80
73842;BME280;62184;52.006;5.924;2022-08-19T01:50:40;100608.25;;;17.87;72.18
73842;BME280;62184;52.006;5.924;2022-08-19T01:53:10;100616.84;;;17.94;71.76
73842;BME280;62184;52.006;5.924;2022-08-19T01:55:40;100620.06;;;18.01;71.74
73842;BME280;62184;52.006;5.924;2022-08-19T01:58:12;100613.44;;;18.06;71.78
73842;BME280;62184;52.006;5.924;2022-08-19T02:00:43;100608.69;;;18.10;71.91
73842;BME280;62184;52.006;5.924;2022-08-19T02:03:09;100602.25;;;18.12;71.50
73842;BME280;62184;52.006;5.924;2022-08-19T02:05:36;100613.94;;;18.13;71.39
73842;BME280;62184;52.006;5.924;2022-08-19T02:08:04;100619.16;;;18.16;71.97
73842;BME280;62184;52.006;5.924;2022-08-19T02:10:31;100621.59;;;18.20;71.78
73842;BME280;62184;52.006;5.924;2022-08-19T02:12:57;100623.16;;;18.24;71.71
73842;BME280;62184;52.006;5.924;2022-08-19T02:15:27;100626.44;;;18.29;71.52
73842;BME280;62184;52.006;5.924;2022-08-19T02:17:53;100627.97;;;18.33;71.28
73842;BME280;62184;52.006;5.924;2022-08-19T02:20:19;100623.28;;;18.37;71.76
73842;BME280;62184;52.006;5.924;2022-08-19T02:22:46;100625.03;;;18.38;71.35
73842;BME280;62184;52.006;5.924;2022-08-19T02:25:13;100613.41;;;18.36;71.32
73842;BME280;62184;52.006;5.924;2022-08-19T02:27:41;100619.78;;;18.35;71.12
73842;BME280;62184;52.006;5.924;2022-08-19T02:30:13;100618.16;;;18.32;70.99
73842;BME280;62184;52.006;5.924;2022-08-19T02:32:44;100632.72;;;18.30;70.79
73842;BME280;62184;52.006;5.924;2022-08-19T02:35:11;100636.56;;;18.26;70.63
73842;BME280;62184;52.006;5.924;2022-08-19T02:37:38;100626.91;;;18.22;70.63
73842;BME280;62184;52.006;5.924;2022-08-19T02:40:06;100629.00;;;18.17;70.81
73842;BME280;62184;52.006;5.924;2022-08-19T02:42:33;100618.47;;;18.12;70.66
73842;BME280;62184;52.006;5.924;2022-08-19T02:45:00;100608.91;;;18.07;70.69
73842;BME280;62184;52.006;5.924;2022-08-19T02:47:26;100609.06;;;18.04;70.67
73842;BME280;62184;52.006;5.924;2022-08-19T02:49:55;100619.31;;;17.99;70.73
73842;BME280;62184;52.006;5.924;2022-08-19T02:52:21;100616.84;;;17.94;70.46
73842;BME280;62184;52.006;5.924;2022-08-19T02:54:48;100615.41;;;17.88;70.93
73842;BME280;62184;52.006;5.924;2022-08-19T02:57:14;100622.88;;;17.83;71.35
73842;BME280;62184;52.006;5.924;2022-08-19T02:59:40;100622.19;;;17.80;71.26
73842;BME280;62184;52.006;5.924;2022-08-19T03:02:07;100622.28;;;17.78;71.27
73842;BME280;62184;52.006;5.924;2022-08-19T03:04:33;100626.91;;;17.76;70.96
73842;BME280;62184;52.006;5.924;2022-08-19T03:07:03;100617.06;;;17.75;71.21
73842;BME280;62184;52.006;5.924;2022-08-19T03:09:29;100620.75;;;17.74;71.09
73842;BME280;62184;52.006;5.924;2022-08-19T03:11:56;100622.56;;;17.74;70.92
73842;BME280;62184;52.006;5.924;2022-08-19T03:14:22;100624.56;;;17.70;71.23
73842;BME280;62184;52.006;5.924;2022-08-19T03:16:52;100624.72;;;17.67;71.38
73842;BME280;62184;52.006;5.924;2022-08-19T03:19:19;100630.41;;;17.63;71.27
73842;BME280;62184;52.006;5.924;2022-08-19T03:21:46;100618.19;;;17.55;71.09
73842;BME280;62184;52.006;5.924;2022-08-19T03:24:16;100621.13;;;17.51;71.15
73842;BME280;62184;52.006;5.924;2022-08-19T03:26:45;100619.59;;;17.47;71.40
73842;BME280;62184;52.006;5.924;2022-08-19T03:29:13;100619.81;;;17.42;71.58
73842;BME280;62184;52.006;5.924;2022-08-19T03:31:41;100620.97;;;17.38;71.68
73842;BME280;62184;52.006;5.924;2022-08-19T03:34:10;100627.59;;;17.33;71.99
73842;BME280;62184;52.006;5.924;2022-08-19T03:36:38;100627.75;;;17.30;71.96
73842;BME280;62184;52.006;5.924;2022-08-19T03:39:04;100629.75;;;17.26;71.47
73842;BME280;62184;52.006;5.924;2022-08-19T03:41:37;100628.09;;;17.24;71.79
73842;BME280;62184;52.006;5.924;2022-08-19T03:44:06;100627.47;;;17.18;71.55
73842;BME280;62184;52.006;5.924;2022-08-19T03:46:33;100631.13;;;17.17;71.71
73842;BME280;62184;52.006;5.924;2022-08-19T03:49:03;100625.91;;;17.14;71.74
73842;BME280;62184;52.006;5.924;2022-08-19T03:51:31;100625.13;;;17.12;71.89
73842;BME280;62184;52.006;5.924;2022-08-19T03:54:01;100622.59;;;17.09;71.98
73842;BME280;62184;52.006;5.924;2022-08-19T03:56:29;100630.88;;;17.06;71.97
73842;BME280;62184;52.006;5.924;2022-08-19T03:58:58;100623.81;;;17.04;71.99
73842;BME280;62184;52.006;5.924;2022-08-19T04:01:27;100628.59;;;16.99;72.31
73842;BME280;62184;52.006;5.924;2022-08-19T04:03:56;100620.66;;;16.96;71.93
73842;BME280;62184;52.006;5.924;2022-08-19T04:06:26;100623.44;;;16.94;72.01
73842;BME280;62184;52.006;5.924;2022-08-19T04:08:54;100627.16;;;16.92;72.11
73842;BME280;62184;52.006;5.924;2022-08-19T04:11:24;100627.28;;;16.90;72.22
73842;BME280;62184;52.006;5.924;2022-08-19T04:13:53;100621.06;;;16.88;72.62
73842;BME280;62184;52.006;5.924;2022-08-19T04:16:25;100626.63;;;16.85;72.45
73842;BME280;62184;52.006;5.924;2022-08-19T04:18:52;100616.03;;;16.82;72.37
73842;BME280;62184;52.006;5.924;2022-08-19T04:21:21;100625.06;;;16.81;72.40
73842;BME280;62184;52.006;5.924;2022-08-19T04:23:50;100635.13;;;16.77;72.03
73842;BME280;62184;52.006;5.924;2022-08-19T04:26:19;100636.16;;;16.75;72.06
73842;BME280;62184;52.006;5.924;2022-08-19T04:28:47;100627.47;;;16.70;71.94
73842;BME280;62184;52.006;5.924;2022-08-19T04:31:15;100608.84;;;16.65;72.01
73842;BME280;62184;52.006;5.924;2022-08-19T04:33:47;100615.25;;;16.63;72.20
73842;BME280;62184;52.006;5.924;2022-08-19T04:36:18;100603.72;;;16.59;72.26
73842;BME280;62184;52.006;5.924;2022-08-19T04:38:46;100615.38;;;16.60;72.60
73842;BME280;62184;52.006;5.924;2022-08-19T04:41:12;100607.38;;;16.58;72.29
73842;BME280;62184;52.006;5.924;2022-08-19T04:43:39;100610.16;;;16.57;72.53
73842;BME280;62184;52.006;5.924;2022-08-19T04:46:06;100605.66;;;16.57;72.55
73842;BME280;62184;52.006;5.924;2022-08-19T04:48:33;100610.16;;;16.57;72.18
73842;BME280;62184;52.006;5.924;2022-08-19T04:51:06;100615.56;;;16.57;72.37
73842;BME280;62184;52.006;5.924;2022-08-19T04:53:37;100612.00;;;16.56;72.40
73842;BME280;62184;52.006;5.924;2022-08-19T04:56:07;100608.44;;;16.56;72.70
73842;BME280;62184;52.006;5.924;2022-08-19T04:58:41;100612.06;;;16.55;72.89
73842;BME280;62184;52.006;5.924;2022-08-19T05:01:11;100609.44;;;16.53;72.80
73842;BME280;62184;52.006;5.924;2022-08-19T05:03:38;100620.31;;;16.52;72.60
73842;BME280;62184;52.006;5.924;2022-08-19T05:06:09;100622.06;;;16.53;73.03
73842;BME280;62184;52.006;5.924;2022-08-19T05:08:39;100618.50;;;16.52;72.74
73842;BME280;62184;52.006;5.924;2022-08-19T05:11:09;100618.41;;;16.54;73.09
73842;BME280;62184;52.006;5.924;2022-08-19T05:13:36;100609.44;;;16.53;73.19
73842;BME280;62184;52.006;5.924;2022-08-19T05:16:04;100618.34;;;16.55;73.42
73842;BME280;62184;52.006;5.924;2022-08-19T05:18:30;100625.28;;;16.59;73.68
73842;BME280;62184;52.006;5.924;2022-08-19T05:20:57;100618.75;;;16.65;73.83
73842;BME280;62184;52.006;5.924;2022-08-19T05:23:26;100622.00;;;16.71;74.11
73842;BME280;62184;52.006;5.924;2022-08-19T05:25:52;100628.88;;;16.77;74.12
73842;BME280;62184;52.006;5.924;2022-08-19T05:28:19;100614.97;;;16.85;74.38
73842;BME280;62184;52.006;5.924;2022-08-19T05:30:45;100617.25;;;16.92;74.83
73842;BME280;62184;52.006;5.924;2022-08-19T05:33:12;100625.63;;;17.03;74.50
73842;BME280;62184;52.006;5.924;2022-08-19T05:35:38;100624.25;;;17.12;74.87
73842;BME280;62184;52.006;5.924;2022-08-19T05:38:05;100610.31;;;17.19;75.10
73842;BME280;62184;52.006;5.924;2022-08-19T05:40:36;100619.59;;;17.31;74.97
73842;BME280;62184;52.006;5.924;2022-08-19T05:43:03;100620.03;;;17.39;74.96
73842;BME280;62184;52.006;5.924;2022-08-19T05:45:31;100617.66;;;17.49;75.01
73842;BME280;62184;52.006;5.924;2022-08-19T05:47:58;100619.84;;;17.58;75.30
73842;BME280;62184;52.006;5.924;2022-08-19T05:50:24;100622.91;;;17.68;75.43
73842;BME280;62184;52.006;5.924;2022-08-19T05:52:51;100629.69;;;17.75;75.48
73842;BME280;62184;52.006;5.924;2022-08-19T05:55:18;100628.28;;;17.83;75.70
73842;BME280;62184;52.006;5.924;2022-08-19T05:57:47;100626.78;;;17.93;75.38
73842;BME280;62184;52.006;5.924;2022-08-19T06:00:14;100619.31;;;17.99;75.08
73842;BME280;62184;52.006;5.924;2022-08-19T06:02:41;100626.00;;;18.07;75.44
73842;BME280;62184;52.006;5.924;2022-08-19T06:05:09;100618.31;;;18.15;75.12
73842;BME280;62184;52.006;5.924;2022-08-19T06:07:37;100622.47;;;18.21;75.21
73842;BME280;62184;52.006;5.924;2022-08-19T06:10:06;100620.25;;;18.27;75.38
73842;BME280;62184;52.006;5.924;2022-08-19T06:12:35;100627.91;;;18.35;75.23
73842;BME280;62184;52.006;5.924;2022-08-19T06:15:07;100629.47;;;18.39;75.10
73842;BME280;62184;52.006;5.924;2022-08-19T06:17:37;100631.09;;;18.42;75.27
73842;BME280;62184;52.006;5.924;2022-08-19T06:20:10;100633.53;;;18.46;75.04
73842;BME280;62184;52.006;5.924;2022-08-19T06:22:40;100637.72;;;18.52;74.89
73842;BME280;62184;52.006;5.924;2022-08-19T06:25:09;100641.13;;;18.55;75.13
73842;BME280;62184;52.006;5.924;2022-08-19T06:27:36;100641.69;;;18.60;74.81
73842;BME280;62184;52.006;5.924;2022-08-19T06:30:07;100652.25;;;18.65;74.62
73842;BME280;62184;52.006;5.924;2022-08-19T06:32:34;100646.47;;;18.71;74.81
73842;BME280;62184;52.006;5.924;2022-08-19T06:35:00;100645.19;;;18.77;74.78
73842;BME280;62184;52.006;5.924;2022-08-19T06:37:27;100647.34;;;18.86;74.67
73842;BME280;62184;52.006;5.924;2022-08-19T06:39:53;100647.56;;;18.97;74.61
73842;BME280;62184;52.006;5.924;2022-08-19T06:42:19;100652.47;;;19.04;74.22
73842;BME280;62184;52.006;5.924;2022-08-19T06:44:47;100638.63;;;19.09;74.09
73842;BME280;62184;52.006;5.924;2022-08-19T06:47:18;100636.53;;;19.14;74.38
73842;BME280;62184;52.006;5.924;2022-08-19T06:49:46;100633.50;;;19.19;74.09
73842;BME280;62184;52.006;5.924;2022-08-19T06:52:13;100639.22;;;19.28;73.58
73842;BME280;62184;52.006;5.924;2022-08-19T06:54:39;100640.59;;;19.35;73.61
73842;BME280;62184;52.006;5.924;2022-08-19T06:57:07;100638.25;;;19.43;73.70
73842;BME280;62184;52.006;5.924;2022-08-19T06:59:34;100640.69;;;19.48;73.31
73842;BME280;62184;52.006;5.924;2022-08-19T07:02:04;100641.47;;;19.50;73.32
73842;BME280;62184;52.006;5.924;2022-08-19T07:04:35;100634.97;;;19.53;73.74
73842;BME280;62184;52.006;5.924;2022-08-19T07:07:04;100637.84;;;19.64;73.71
73842;BME280;62184;52.006;5.924;2022-08-19T07:09:32;100647.66;;;19.79;73.38
73842;BME280;62184;52.006;5.924;2022-08-19T07:11:59;100639.28;;;19.96;73.04
73842;BME280;62184;52.006;5.924;2022-08-19T07:14:27;100648.53;;;20.06;72.71
73842;BME280;62184;52.006;5.924;2022-08-19T07:16:55;100665.06;;;20.16;72.67
73842;BME280;62184;52.006;5.924;2022-08-19T07:19:25;100658.84;;;20.28;72.29
73842;BME280;62184;52.006;5.924;2022-08-19T07:21:55;100669.94;;;20.38;71.99
73842;BME280;62184;52.006;5.924;2022-08-19T07:24:24;100661.69;;;20.39;71.63
73842;BME280;62184;52.006;5.924;2022-08-19T07:26:53;100660.19;;;20.48;71.51
73842;BME280;62184;52.006;5.924;2022-08-19T07:29:22;100663.25;;;20.56;71.36
73842;BME280;62184;52.006;5.924;2022-08-19T07:31:50;100668.81;;;20.67;71.13
73842;BME280;62184;52.006;5.924;2022-08-19T07:34:17;100669.88;;;20.77;70.98
73842;BME280;62184;52.006;5.924;2022-08-19T07:36:45;100675.63;;;20.85;70.65
73842;BME280;62184;52.006;5.924;2022-08-19T07:39:16;100675.22;;;20.91;69.81
73842;BME280;62184;52.006;5.924;2022-08-19T07:41:46;100678.81;;;20.92;69.67
73842;BME280;62184;52.006;5.924;2022-08-19T07:44:14;100678.25;;;20.87;69.18
73842;BME280;62184;52.006;5.924;2022-08-19T07:46:45;100680.66;;;20.91;69.40
73842;BME280;62184;52.006;5.924;2022-08-19T07:49:14;100682.16;;;20.95;68.92
73842;BME280;62184;52.006;5.924;2022-08-19T07:51:41;100677.00;;;21.05;69.01
73842;BME280;62184;52.006;5.924;2022-08-19T07:54:07;100679.25;;;21.11;68.87
73842;BME280;62184;52.006;5.924;2022-08-19T07:56:36;100678.72;;;21.19;68.62
73842;BME280;62184;52.006;5.924;2022-08-19T07:59:03;100687.44;;;21.24;68.10
73842;BME280;62184;52.006;5.924;2022-08-19T08:01:29;100700.34;;;21.20;67.76
73842;BME280;62184;52.006;5.924;2022-08-19T08:03:57;100693.97;;;21.09;67.81
73842;BME280;62184;52.006;5.924;2022-08-19T08:06:24;100696.34;;;21.01;67.91
73842;BME280;62184;52.006;5.924;2022-08-19T08:08:50;100690.56;;;20.92;67.70
73842;BME280;62184;52.006;5.924;2022-08-19T08:11:18;100684.75;;;20.84;67.37
73842;BME280;62184;52.006;5.924;2022-08-19T08:13:48;100691.72;;;20.76;67.65
73842;BME280;62184;52.006;5.924;2022-08-19T08:16:15;100689.53;;;20.68;67.92
73842;BME280;62184;52.006;5.924;2022-08-19T08:18:41;100698.44;;;20.70;67.98
73842;BME280;62184;52.006;5.924;2022-08-19T08:21:08;100699.75;;;20.77;68.26
73842;BME280;62184;52.006;5.924;2022-08-19T08:23:34;100698.69;;;20.92;67.66
73842;BME280;62184;52.006;5.924;2022-08-19T08:26:01;100703.28;;;21.05;67.57
73842;BME280;62184;52.006;5.924;2022-08-19T08:28:27;100707.97;;;21.15;67.80
73842;BME280;62184;52.006;5.924;2022-08-19T08:30:57;100713.38;;;21.28;67.50
73842;BME280;62184;52.006;5.924;2022-08-19T08:33:27;100706.94;;;21.54;67.34
73842;BME280;62184;52.006;5.924;2022-08-19T08:35:54;100713.88;;;21.84;66.47
73842;BME280;62184;52.006;5.924;2022-08-19T08:38:20;100714.88;;;22.06;65.62
73842;BME280;62184;52.006;5.924;2022-08-19T08:40:50;100718.19;;;22.23;64.68
73842;BME280;62184;52.006;5.924;2022-08-19T08:43:23;100709.94;;;22.35;63.90
73842;BME280;62184;52.006;5.924;2022-08-19T08:46:01;100715.69;;;22.43;62.38
73842;BME280;62184;52.006;5.924;2022-08-19T08:48:36;100717.31;;;22.46;63.15
73842;BME280;62184;52.006;5.924;2022-08-19T08:51:11;100719.25;;;22.57;62.79
73842;BME280;62184;52.006;5.924;2022-08-19T08:53:45;100715.22;;;22.73;61.92
73842;BME280;62184;52.006;5.924;2022-08-19T08:56:15;100718.38;;;22.91;61.64
73842;BME280;62184;52.006;5.924;2022-08-19T08:58:48;100710.84;;;23.06;61.38
73842;BME280;62184;52.006;5.924;2022-08-19T09:01:23;100715.00;;;23.23;60.70
73842;BME280;62184;52.006;5.924;2022-08-19T09:03:50;100716.00;;;23.33;60.37
73842;BME280;62184;52.006;5.924;2022-08-19T09:06:24;100709.06;;;23.40;60.07
73842;BME280;62184;52.006;5.924;2022-08-19T09:09:02;100712.16;;;23.57;60.19
73842;BME280;62184;52.006;5.924;2022-08-19T09:11:55;100709.06;;;23.73;58.38
73842;BME280;62184;52.006;5.924;2022-08-19T09:14:43;100713.25;;;23.88;58.61
73842;BME280;62184;52.006;5.924;2022-08-19T09:17:17;100700.84;;;24.07;58.00
73842;BME280;62184;52.006;5.924;2022-08-19T09:19:53;100707.63;;;24.23;57.39
73842;BME280;62184;52.006;5.924;2022-08-19T09:22:24;100705.44;;;24.38;57.87
73842;BME280;62184;52.006;5.924;2022-08-19T09:24:51;100697.69;;;24.54;56.75
73842;BME280;62184;52.006;5.924;2022-08-19T09:27:17;100702.69;;;24.60;56.81
73842;BME280;62184;52.006;5.924;2022-08-19T09:29:44;100709.34;;;24.67;56.19
73842;BME280;62184;52.006;5.924;2022-08-19T09:32:11;100714.22;;;24.85;56.85
73842;BME280;62184;52.006;5.924;2022-08-19T09:34:40;100705.13;;;25.05;56.22
73842;BME280;62184;52.006;5.924;2022-08-19T09:37:06;100707.34;;;25.32;55.82
73842;BME280;62184;52.006;5.924;2022-08-19T09:39:33;100712.19;;;25.49;54.63
73842;BME280;62184;52.006;5.924;2022-08-19T09:41:59;100710.31;;;25.50;54.21
73842;BME280;62184;52.006;5.924;2022-08-19T09:44:25;100716.88;;;25.37;54.31
73842;BME280;62184;52.006;5.924;2022-08-19T09:46:52;100710.22;;;25.30;54.58
73842;BME280;62184;52.006;5.924;2022-08-19T09:49:19;100711.94;;;25.31;54.50
73842;BME280;62184;52.006;5.924;2022-08-19T09:51:49;100708.03;;;25.55;54.30
73842;BME280;62184;52.006;5.924;2022-08-19T09:54:17;100717.72;;;25.59;53.81
73842;BME280;62184;52.006;5.924;2022-08-19T09:56:44;100721.41;;;25.48;54.32
73842;BME280;62184;52.006;5.924;2022-08-19T09:59:10;100721.53;;;25.47;54.37
73842;BME280;62184;52.006;5.924;2022-08-19T10:01:37;100723.75;;;25.53;53.93
73842;BME280;62184;52.006;5.924;2022-08-19T10:04:04;100714.97;;;25.59;54.15
73842;BME280;62184;52.006;5.924;2022-08-19T10:06:31;100730.38;;;25.60;53.93
73842;BME280;62184;52.006;5.924;2022-08-19T10:09:00;100728.09;;;25.65;53.32
73842;BME280;62184;52.006;5.924;2022-08-19T10:11:26;100730.88;;;25.74;52.55
73842;BME280;62184;52.006;5.924;2022-08-19T10:13:53;100727.41;;;25.72;52.21
73842;BME280;62184;52.006;5.924;2022-08-19T10:16:21;100728.25;;;25.73;51.58
73842;BME280;62184;52.006;5.924;2022-08-19T10:18:51;100720.78;;;25.75;52.26
73842;BME280;62184;52.006;5.924;2022-08-19T10:21:21;100725.72;;;25.81;51.46
73842;BME280;62184;52.006;5.924;2022-08-19T10:23:51;100721.41;;;25.88;51.36
73842;BME280;62184;52.006;5.924;2022-08-19T10:26:25;100719.59;;;25.98;51.05
73842;BME280;62184;52.006;5.924;2022-08-19T10:28:54;100706.81;;;26.08;50.86
73842;BME280;62184;52.006;5.924;2022-08-19T10:31:25;100714.16;;;26.08;50.27
73842;BME280;62184;52.006;5.924;2022-08-19T10:33:55;100714.13;;;25.98;50.29
73842;BME280;62184;52.006;5.924;2022-08-19T10:36:25;100715.84;;;25.99;50.94
73842;BME280;62184;52.006;5.924;2022-08-19T10:38:54;100720.38;;;26.19;50.03
73842;BME280;62184;52.006;5.924;2022-08-19T10:41:28;100715.34;;;26.34;49.51
73842;BME280;62184;52.006;5.924;2022-08-19T10:43:58;100711.31;;;26.38;49.01
73842;BME280;62184;52.006;5.924;2022-08-19T10:46:27;100707.13;;;26.25;49.02
73842;BME280;62184;52.006;5.924;2022-08-19T10:48:54;100703.66;;;26.23;49.64
73842;BME280;62184;52.006;5.924;2022-08-19T10:51:21;100705.53;;;26.32;49.67
73842;BME280;62184;52.006;5.924;2022-08-19T10:53:48;100710.31;;;26.39;49.62
73842;BME280;62184;52.006;5.924;2022-08-19T10:56:14;100712.50;;;26.55;49.54
73842;BME280;62184;52.006;5.924;2022-08-19T10:58:43;100713.66;;;26.62;49.20
73842;BME280;62184;52.006;5.924;2022-08-19T11:01:10;100709.03;;;26.63;48.57
73842;BME280;62184;52.006;5.924;2022-08-19T11:03:36;100710.78;;;26.64;48.68
73842;BME280;62184;52.006;5.924;2022-08-19T11:06:05;100698.53;;;26.68;48.63
73842;BME280;62184;52.006;5.924;2022-08-19T11:08:33;100705.28;;;26.83;48.40
73842;BME280;62184;52.006;5.924;2022-08-19T11:11:01;100708.16;;;27.01;48.17
73842;BME280;62184;52.006;5.924;2022-08-19T11:13:30;100710.00;;;27.10;48.30
73842;BME280;62184;52.006;5.924;2022-08-19T11:16:04;100706.09;;;27.22;47.54
73842;BME280;62184;52.006;5.924;2022-08-19T11:18:35;100697.31;;;27.28;47.62
73842;BME280;62184;52.006;5.924;2022-08-19T11:21:11;100703.34;;;27.31;47.33
73842;BME280;62184;52.006;5.924;2022-08-19T11:23:40;100702.72;;;27.38;47.51
73842;BME280;62184;52.006;5.924;2022-08-19T11:26:06;100699.53;;;27.52;47.07
73842;BME280;62184;52.006;5.924;2022-08-19T11:28:33;100694.69;;;27.63;46.61
73842;BME280;62184;52.006;5.924;2022-08-19T11:31:03;100699.25;;;27.73;46.59
73842;BME280;62184;52.006;5.924;2022-08-19T11:33:30;100694.06;;;27.79;46.39
73842;BME280;62184;52.006;5.924;2022-08-19T11:35:58;100698.19;;;27.93;46.23
73842;BME280;62184;52.006;5.924;2022-08-19T11:38:25;100694.53;;;28.02;45.96
73842;BME280;62184;52.006;5.924;2022-08-19T11:40:56;100686.69;;;28.07;45.41
73842;BME280;62184;52.006;5.924;2022-08-19T11:43:24;100684.84;;;27.98;45.41
73842;BME280;62184;52.006;5.924;2022-08-19T11:45:50;100681.88;;;27.91;45.67
73842;BME280;62184;52.006;5.924;2022-08-19T11:48:19;100688.25;;;28.10;45.47
73842;BME280;62184;52.006;5.924;2022-08-19T11:50:46;100687.50;;;28.35;45.32
73842;BME280;62184;52.006;5.924;2022-08-19T11:53:12;100692.69;;;28.56;44.96
73842;BME280;62184;52.006;5.924;2022-08-19T11:55:39;100685.16;;;28.58;44.14
73842;BME280;62184;52.006;5.924;2022-08-19T11:58:05;100692.69;;;28.56;44.28
73842;BME280;62184;52.006;5.924;2022-08-19T12:00:32;100684.53;;;28.64;44.56
73842;BME280;62184;52.006;5.924;2022-08-19T12:02:58;100678.16;;;28.63;43.88
73842;BME280;62184;52.006;5.924;2022-08-19T12:05:28;100686.66;;;28.52;43.54
73842;BME280;62184;52.006;5.924;2022-08-19T12:07:54;100683.44;;;28.57;43.99
73842;BME280;62184;52.006;5.924;2022-08-19T12:10:20;100680.53;;;28.76;43.92
73842;BME280;62184;52.006;5.924;2022-08-19T12:12:47;100691.75;;;29.00;43.61
73842;BME280;62184;52.006;5.924;2022-08-19T12:15:14;100680.53;;;29.20;43.27
73842;BME280;62184;52.006;5.924;2022-08-19T12:17:41;100678.03;;;29.34;43.03
73842;BME280;62184;52.006;5.924;2022-08-19T12:20:09;100680.44;;;29.29;42.34
73842;BME280;62184;52.006;5.924;2022-08-19T12:22:40;100683.59;;;29.16;41.96
73842;BME280;62184;52.006;5.924;2022-08-19T12:25:08;100681.88;;;29.15;42.95
73842;BME280;62184;52.006;5.924;2022-08-19T12:27:36;100683.00;;;29.31;42.85
73842;BME280;62184;52.006;5.924;2022-08-19T12:30:04;100677.53;;;29.39;42.47
73842;BME280;62184;52.006;5.924;2022-08-19T12:32:33;100670.03;;;29.49;42.31
73842;BME280;62184;52.006;5.924;2022-08-19T12:35:00;100672.84;;;29.57;42.41
73842;BME280;62184;52.006;5.924;2022-08-19T12:37:27;100668.81;;;29.77;42.09
73842;BME280;62184;52.006;5.924;2022-08-19T12:39:55;100662.66;;;29.91;41.69
73842;BME280;62184;52.006;5.924;2022-08-19T12:42:22;100656.28;;;29.91;41.61
73842;BME280;62184;52.006;5.924;2022-08-19T12:44:48;100651.47;;;29.93;41.94
73842;BME280;62184;52.006;5.924;2022-08-19T12:47:15;100659.06;;;29.99;41.48
73842;BME280;62184;52.006;5.924;2022-08-19T12:49:41;100663.00;;;29.97;42.48
73842;BME280;62184;52.006;5.924;2022-08-19T12:52:08;100658.84;;;29.84;41.97
73842;BME280;62184;52.006;5.924;2022-08-19T12:54:36;100659.66;;;29.69;42.23
73842;BME280;62184;52.006;5.924;2022-08-19T12:57:07;100667.34;;;29.57;42.38